< < Back
Terminal Aerodrome Forecast


Current Version              Previous Versions:   1  2  3  4  5  6  7  8  9  

Terminal Aerodrome Forecast

541
FTAK31 PAJN 012300
TAFAGS
TAF
PAGS 012330Z 0200/0224 31004KT P6SM -SHRA SCT010 BKN022 OVC035
      TEMPO 0200/0202 2SM -SHRA BR BKN005 OVC012
     FM020400 32005KT P6SM FEW015 SCT060
     FM020800 VRB04KT P6SM VCFG FEW015 SCT060
     FM021100 00000KT 1/2SM FG BKN003
     FM021500 13003KT 3SM BR OVC015
     FM021900 13008KT P6SM SCT015 BKN050
      AMD NOT SKED=

Latest METAR

376
SAUS70 KWBC 020200 RRN
MTRAGS
METAR KAGS 020153Z 00000KT 4SM RA BR BKN110 25/23 A3009 RMK AO2 RAB0054
TSE00 SLP187 P0006 T02500233


USA.gov is the U.S. government's official web portal to all federal, state and local government web resources and services.